Flight Track Log - Related Links

Times and Time Zones

All times are in EDT time to prevent confusion due to time zone crossing. See the N423S flight status page for this flight to view local times or setup timezone preferences in your user account.


Time Position Orientation Groundspeed Altitude Reporting Facility
EDT Latitude Longitude Course Direction KTS MPH feet Rate Location/Type
Mon 10:05:17 AM 40.8669 -97.4664 126° Southeast 114 131 4,300  Level Minneapolis Center
Mon 10:05:58 AM 40.8472 -97.4306 126° Southeast 118 136 4,700 529 Climbing Minneapolis Center
Mon 10:06:59 AM 40.8469 -97.3864 90° East 111 128 5,200 497 Climbing Minneapolis Center
Mon 10:08:23 AM 40.8631 -97.3350 67° East 120 138 5,900 545 Climbing Minneapolis Center
Mon 10:09:00 AM 40.8464 -97.2983 121° Southeast 124 143 6,300 587 Climbing Minneapolis Center
Mon 10:09:55 AM 40.8464 -97.2600 90° East 118 136 6,800 483 Climbing Minneapolis Center
Mon 10:10:27 AM 40.8644 -97.2494 24° Northeast 116 133 7,000 574 Climbing Minneapolis Center
Mon 10:11:29 AM 40.8619 -97.1911 93° East 127 146 7,700 629 Climbing Minneapolis Center
Mon 10:12:31 AM 40.8611 -97.1456 91° East 127 146 8,300 532 Climbing Minneapolis Center
Mon 10:13:33 AM 40.8614 -97.0972 90° East 130 150 8,800 522 Climbing Minneapolis Center
Mon 10:14:03 AM 40.8461 -97.0644 122° Southeast 132 152 9,100 290 Climbing Minneapolis Center
Mon 10:14:35 AM 40.8608 -97.0481 40° Northeast 132 152 9,100 -64 Level Minneapolis Center
Mon 10:15:37 AM 40.8589 -96.9856 92° East 165 190 9,000 -48 Descending Minneapolis Center
Mon 10:16:39 AM 40.8572 -96.9208 92° East 174 200 9,000  Level Minneapolis Center
Mon 10:17:41 AM 40.8572 -96.8439 90° East 176 203 9,000  Level Minneapolis Center
Mon 10:18:43 AM 40.8561 -96.7808 91° East 173 199 9,000  Level Minneapolis Center
Mon 10:19:45 AM 40.8544 -96.7164 92° East 174 200 9,000  Level Minneapolis Center
Mon 10:20:47 AM 40.8528 -96.6503 92° East 177 204 9,000  Level Minneapolis Center
Mon 10:21:49 AM 40.8686 -96.5914 70° East 171 197 9,000  Level Minneapolis Center
Mon 10:22:51 AM 40.8653 -96.5294 94° East 172 198 9,000  Level Minneapolis Center
Mon 10:23:53 AM 40.8700 -96.4514 85° East 177 204 9,000  Level Minneapolis Center
Mon 10:24:55 AM 40.8692 -96.4028 91° East 173 199 9,000  Level Minneapolis Center
Mon 10:25:57 AM 40.8664 -96.3264 93° East 172 198 9,000  Level Minneapolis Center
Mon 10:26:59 AM 40.8653 -96.2647 91° East 171 197 9,000  Level Minneapolis Center
Mon 10:28:02 AM 40.8622 -96.2042 94° East 168 193 9,000  Level Minneapolis Center
Mon 10:29:04 AM 40.8603 -96.1300 92° East 168 193 9,000  Level Minneapolis Center
Mon 10:30:07 AM 40.8558 -96.0556 94° East 171 197 9,000  Level Minneapolis Center
Mon 10:31:08 AM 40.8578 -96.0044 87° East 171 197 9,000  Level Minneapolis Center
Mon 10:32:09 AM 40.8561 -95.9314 92° East 171 197 9,000  Level Minneapolis Center
Mon 10:33:10 AM 40.8539 -95.8683 93° East 169 194 9,000  Level Minneapolis Center
Mon 10:34:11 AM 40.8519 -95.8078 92° East 163 188 9,000  Level Minneapolis Center
Mon 10:35:11 AM 40.8497 -95.7419 93° East 168 193 9,000  Level Minneapolis Center
Mon 10:36:12 AM 40.8497 -95.6814 90° East 169 194 9,000  Level Minneapolis Center
Mon 10:37:32 AM 40.8458 -95.6244 95° East 167 192 9,000  Level Minneapolis Center
Mon 10:38:35 AM 40.8431 -95.5531 93° East 165 190 9,000  Level Minneapolis Center
Mon 10:39:37 AM 40.8403 -95.4931 93° East 165 190 9,000  Level Minneapolis Center
Mon 10:40:39 AM 40.8389 -95.4211 91° East 164 189 9,000  Level Minneapolis Center
Mon 10:41:41 AM 40.8356 -95.3603 94° East 165 190 9,000  Level Minneapolis Center
Mon 10:42:43 AM 40.8342 -95.3000 92° East 165 190 9,000  Level Minneapolis Center
Mon 10:43:46 AM 40.8319 -95.2397 93° East 165 190 9,000  Level Minneapolis Center
Mon 10:44:59 AM 40.8297 -95.1789 93° East 166 191 9,000  Level Minneapolis Center
Mon 10:46:01 AM 40.8269 -95.1053 93° East 167 192 9,000  Level Minneapolis Center
Mon 10:47:03 AM 40.8244 -95.0317 93° East 167 192 9,000  Level Minneapolis Center
Mon 10:48:06 AM 40.8222 -94.9692 93° East 170 196 9,000  Level Minneapolis Center
Mon 10:49:08 AM 40.8200 -94.9069 93° East 169 194 9,000  Level Minneapolis Center
Mon 10:50:10 AM 40.8172 -94.8442 93° East 171 197 9,000  Level Minneapolis Center
Mon 10:51:12 AM 40.8153 -94.7811 92° East 171 197 9,000  Level Minneapolis Center
Mon 10:52:14 AM 40.8128 -94.7169 93° East 173 199 9,000  Level Minneapolis Center
Mon 10:53:16 AM 40.8089 -94.6400 94° East 176 203 9,000  Level Minneapolis Center
Mon 10:54:18 AM 40.8056 -94.5756 94° East 176 203 9,000  Level Minneapolis Center
Mon 10:55:20 AM 40.8036 -94.5139 92° East 176 203 9,000  Level Minneapolis Center
Mon 10:56:22 AM 40.8014 -94.4481 93° East 179 206 9,000  Level Minneapolis Center
Mon 10:57:24 AM 40.7986 -94.3831 93° East 179 206 9,000  Level Minneapolis Center
Mon 10:58:26 AM 40.7931 -94.3061 95° East 178 205 9,000  Level Minneapolis Center
Mon 10:59:28 AM 40.7922 -94.2400 91° East 179 206 9,000  Level Minneapolis Center
Mon 11:00:30 AM 40.7900 -94.1747 93° East 181 208 9,000  Level Minneapolis Center
Mon 11:01:34 AM 40.7856 -94.1094 95° East 180 207 9,000  Level Minneapolis Center
Mon 11:02:36 AM 40.7822 -94.0289 93° East 182 209 9,000  Level Minneapolis Center
Mon 11:03:50 AM 40.7803 -93.9614 92° East 185 213 9,000  Level Minneapolis Center
Mon 11:04:52 AM 40.7756 -93.8828 95° East 183 211 9,000  Level Minneapolis Center
Mon 11:05:54 AM 40.7736 -93.8078 92° East 187 215 9,000  Level Minneapolis Center
Mon 11:06:56 AM 40.7703 -93.7367 94° East 183 211 9,000  Level Minneapolis Center
Mon 11:07:58 AM 40.7678 -93.6719 93° East 180 207 9,000  Level Minneapolis Center
Mon 11:09:00 AM 40.7625 -93.6022 96° East 179 206 9,000  Level Minneapolis Center
Mon 11:09:30 AM 40.7608 -93.5806 96° East 180 207 9,000  Level Chicago Center
Mon 11:10:32 AM 40.7575 -93.5144 94° East 180 207 9,000  Level Chicago Center
Mon 11:11:34 AM 40.7533 -93.4361 94° East 180 207 9,000  Level Chicago Center
Mon 11:12:36 AM 40.7497 -93.3703 94° East 181 208 9,000  Level Chicago Center
Mon 11:13:38 AM 40.7469 -93.3047 93° East 181 208 9,000  Level Chicago Center
Mon 11:14:40 AM 40.7431 -93.2375 94° East 182 209 9,000  Level Chicago Center
Mon 11:15:42 AM 40.7397 -93.1714 94° East 183 211 9,000  Level Chicago Center
Mon 11:16:44 AM 40.7356 -93.0922 94° East 182 209 9,000  Level Chicago Center
Mon 11:17:46 AM 40.7322 -93.0256 94° East 183 211 9,000  Level Chicago Center
Mon 11:18:48 AM 40.7283 -92.9597 94° East 182 209 9,000  Level Chicago Center
Mon 11:19:50 AM 40.7250 -92.8947 94° East 181 208 9,000  Level Chicago Center
Mon 11:20:52 AM 40.7214 -92.8308 94° East 179 206 9,000  Level Chicago Center
Mon 11:22:06 AM 40.7161 -92.7406 94° East 177 204 9,000  Level Chicago Center
Mon 11:23:09 AM 40.7128 -92.6764 94° East 177 204 9,000  Level Chicago Center
Mon 11:24:10 AM 40.7086 -92.6128 95° East 176 203 9,000  Level Chicago Center
Mon 11:25:12 AM 40.7047 -92.5486 95° East 176 203 9,000  Level Chicago Center
Mon 11:26:14 AM 40.7000 -92.4853 96° East 176 203 9,000  Level Chicago Center
Mon 11:27:16 AM 40.6964 -92.4206 94° East 177 204 9,000  Level Chicago Center
Mon 11:28:18 AM 40.6906 -92.3439 96° East 177 204 9,000  Level Chicago Center
Mon 11:29:20 AM 40.6861 -92.2786 95° East 179 206 9,000  Level Chicago Center
Mon 11:30:22 AM 40.6828 -92.2142 94° East 177 204 9,000  Level Chicago Center
Mon 11:31:24 AM 40.6792 -92.1497 94° East 177 204 9,000  Level Chicago Center
Mon 11:32:26 AM 40.6756 -92.0831 94° East 182 209 9,000  Level Chicago Center
Mon 11:33:28 AM 40.6697 -92.0036 96° East 183 211 9,000  Level Chicago Center
Mon 11:34:30 AM 40.6661 -91.9378 94° East 183 211 9,000  Level Chicago Center
Mon 11:35:33 AM 40.6614 -91.8711 95° East 183 211 9,000  Level Chicago Center
Mon 11:36:35 AM 40.6578 -91.8039 94° East 186 214 9,000  Level Chicago Center
Mon 11:37:37 AM 40.6542 -91.7372 94° East 184 212 9,000  Level Chicago Center
Mon 11:38:39 AM 40.6489 -91.6717 96° East 182 209 9,000 48 Level Chicago Center
Mon 11:39:41 AM 40.6433 -91.5922 95° East 182 209 9,100 48 Climbing Chicago Center
Mon 11:40:43 AM 40.6386 -91.5247 95° East 185 213 9,100  Level Chicago Center
Mon 11:41:45 AM 40.6339 -91.4589 95° East 183 211 9,100  Level Chicago Center
Mon 11:42:47 AM 40.6306 -91.3931 94° East 182 209 9,100  Level Chicago Center
Mon 11:43:49 AM 40.6253 -91.3267 96° East 182 209 9,100  Level Chicago Center
Mon 11:44:57 AM 40.6192 -91.2514 96° East 179 206 9,100  Level Kansas City Center
Mon 11:45:59 AM 40.6136 -91.1858 96° East 179 206 9,100  Level Kansas City Center
Mon 11:46:55 AM 40.6103 -91.1194 94° East 180 207 9,100  Level Chicago Center
Mon 11:47:57 AM 40.6053 -91.0544 96° East 179 206 9,100  Level Chicago Center
Mon 11:48:59 AM 40.5994 -90.9886 97° East 180 207 9,100  Level Chicago Center
Mon 11:50:01 AM 40.5942 -90.9086 95° East 181 208 9,100  Level Chicago Center
Mon 11:51:04 AM 40.5889 -90.8425 96° East 182 209 9,100  Level Chicago Center
Mon 11:52:06 AM 40.5847 -90.7756 95° East 184 212 9,100  Level Chicago Center
Mon 11:53:08 AM 40.5797 -90.7089 96° East 184 212 9,100  Level Chicago Center
Mon 11:54:10 AM 40.5753 -90.6411 95° East 186 214 9,100  Level Chicago Center
Mon 11:55:12 AM 40.5692 -90.5739 97° East 186 214 9,100  Level Chicago Center
Mon 11:56:14 AM 40.5631 -90.4931 96° East 186 214 9,100  Level Chicago Center
Mon 11:57:16 AM 40.5586 -90.4264 95° East 185 213 9,100  Level Chicago Center
Mon 11:58:18 AM 40.5533 -90.3592 96° East 185 213 9,100  Level Chicago Center
Mon 11:59:20 AM 40.5481 -90.2931 96° East 183 211 9,100 -48 Level Chicago Center
Mon 12:00:22 PM 40.5428 -90.2272 96° East 182 209 9,000 -48 Descending Chicago Center
Mon 12:01:24 PM 40.5367 -90.1478 96° East 183 211 9,000  Level Chicago Center
Mon 12:02:26 PM 40.5311 -90.0817 96° East 182 209 9,000  Level Chicago Center
Mon 12:03:28 PM 40.5256 -90.0150 96° East 184 212 9,000  Level Chicago Center
Mon 12:04:30 PM 40.5197 -89.9483 97° East 185 213 9,000  Level Chicago Center
Mon 12:05:33 PM 40.5147 -89.8811 96° East 186 214 9,000  Level Chicago Center
Mon 12:06:35 PM 40.5078 -89.8011 96° East 185 213 9,000  Level Chicago Center
Mon 12:07:37 PM 40.5022 -89.7342 96° East 186 214 9,000  Level Chicago Center
Mon 12:08:39 PM 40.4964 -89.6669 96° East 186 214 9,000  Level Chicago Center
Mon 12:09:41 PM 40.4908 -89.6000 96° East 186 214 9,000  Level Chicago Center
Mon 12:10:43 PM 40.4858 -89.5344 96° East 184 212 9,000  Level Chicago Center
Mon 12:11:45 PM 40.4794 -89.4694 97° East 181 208 9,000  Level Chicago Center
Mon 12:12:47 PM 40.4725 -89.3911 97° East 181 208 9,000  Level Chicago Center
Mon 12:13:49 PM 40.4669 -89.3267 96° East 179 206 9,000  Level Chicago Center
Mon 12:14:51 PM 40.4611 -89.2628 97° East 177 204 9,000  Level Chicago Center
Mon 12:15:53 PM 40.4550 -89.1978 97° East 180 207 9,000  Level Chicago Center
Mon 12:16:55 PM 40.4500 -89.1336 96° East 178 205 9,000  Level Chicago Center
Mon 12:17:57 PM 40.4439 -89.0692 97° East 178 205 9,000  Level Chicago Center
Mon 12:18:59 PM 40.4369 -88.9914 97° East 179 206 9,000  Level Chicago Center
Mon 12:20:02 PM 40.4311 -88.9269 97° East 178 205 9,000  Level Chicago Center
Mon 12:21:04 PM 40.4250 -88.8628 97° East 178 205 9,000 48 Level Chicago Center
Mon 12:22:06 PM 40.4203 -88.7983 95° East 178 205 9,100 48 Climbing Chicago Center
Mon 12:23:08 PM 40.4136 -88.7356 98° East 175 201 9,100  Level Chicago Center
Mon 12:24:10 PM 40.4067 -88.6578 97° East 178 205 9,100  Level Chicago Center
Mon 12:25:12 PM 40.4011 -88.5933 96° East 178 205 9,100  Level Chicago Center
Mon 12:26:14 PM 40.3942 -88.5281 98° East 180 207 9,100  Level Chicago Center
Mon 12:27:16 PM 40.3889 -88.4583 96° East 179 206 9,100  Level Chicago Center
Mon 12:28:18 PM 40.3828 -88.3969 97° East 172 198 9,100  Level Chicago Center
Mon 12:29:20 PM 40.3767 -88.3331 97° East 178 205 9,100  Level Chicago Center
Mon 12:30:22 PM 40.3703 -88.2703 98° East 176 203 9,100  Level Chicago Center
Mon 12:31:24 PM 40.3639 -88.2072 98° East 176 203 9,100  Level Chicago Center
Mon 12:32:26 PM 40.3569 -88.1311 97° East 177 204 9,100  Level Chicago Center
Mon 12:33:28 PM 40.3500 -88.0689 98° East 175 201 9,100  Level Chicago Center
Mon 12:34:31 PM 40.3444 -88.0033 96° East 180 207 9,100  Level Chicago Center
Mon 12:35:33 PM 40.3386 -87.9414 97° East 176 203 9,100  Level Chicago Center
Mon 12:36:35 PM 40.3328 -87.8783 97° East 176 203 9,100  Level Chicago Center
Mon 12:37:37 PM 40.3244 -87.8042 98° East 175 201 9,100  Level Chicago Center
Mon 12:38:39 PM 40.3186 -87.7431 97° East 173 199 9,100  Level Chicago Center
Mon 12:39:41 PM 40.3114 -87.6800 99° East 174 200 9,100  Level Chicago Center
Mon 12:40:43 PM 40.3053 -87.6167 97° East 175 201 9,100  Level Chicago Center
Mon 12:41:45 PM 40.2972 -87.5397 98° East 178 205 9,100  Level Chicago Center
Mon 12:42:47 PM 40.2908 -87.4758 97° East 179 206 9,100 -48 Level Chicago Center
Mon 12:43:49 PM 40.2842 -87.4125 98° East 175 201 9,000 -45 Descending Chicago Center
Mon 12:45:01 PM 40.2736 -87.3331 100° East 174 200 9,000  Level Chicago Center
Mon 12:45:31 PM 40.2708 -87.3028 97° East 174 200 9,000  Level Chicago Center
Mon 12:46:18 PM 40.2683 -87.2617 95° East 174 200 9,000  Level Chicago Center
Mon 12:47:20 PM 40.2617 -87.2006 98° East 172 198 9,000  Level Chicago Center
Mon 12:48:22 PM 40.2536 -87.1369 99° East 176 203 9,000  Level Chicago Center
Mon 12:49:24 PM 40.2458 -87.0614 98° East 178 205 9,000  Level Chicago Center
Mon 12:50:26 PM 40.2394 -86.9975 97° East 177 204 9,000  Level Chicago Center
Mon 12:51:29 PM 40.2325 -86.9344 98° East 176 203 9,000  Level Chicago Center
Mon 12:52:31 PM 40.2258 -86.8711 98° East 176 203 9,000  Level Chicago Center
Mon 12:53:33 PM 40.2186 -86.8089 99° East 175 201 9,000  Level Chicago Center
Mon 12:54:35 PM 40.2108 -86.7344 98° East 172 198 9,000  Level Chicago Center
Mon 12:55:37 PM 40.2044 -86.6731 98° East 171 197 9,000  Level Chicago Center
Mon 12:56:39 PM 40.1967 -86.6122 99° East 170 196 9,000  Level Chicago Center
Mon 12:57:41 PM 40.1903 -86.5519 98° East 168 193 9,000  Level Chicago Center
Mon 12:58:43 PM 40.1836 -86.4917 98° East 169 194 9,000  Level Chicago Center
Mon 12:59:45 PM 40.1764 -86.4317 99° East 167 192 9,000  Level Chicago Center
Mon 01:00:47 PM 40.1681 -86.3567 98° East 174 200 9,000  Level Chicago Center
Mon 01:01:49 PM 40.1611 -86.2942 98° East 174 200 9,000  Level Chicago Center
Mon 01:02:52 PM 40.1539 -86.2303 98° East 177 204 9,000  Level Chicago Center
Mon 01:03:54 PM 40.1464 -86.1667 99° East 177 204 9,000  Level Chicago Center
Mon 01:04:56 PM 40.1394 -86.1036 98° East 176 203 9,000  Level Chicago Center
Mon 01:05:58 PM 40.1314 -86.0425 100° East 173 199 9,000  Level Chicago Center
Mon 01:07:00 PM 40.1228 -85.9675 99° East 174 200 9,000  Level Chicago Center

Login

Don't have an account? Register now (free) for customized features, flight alerts, and more!